Bei Facebook empfehlenBei Twitter postenGoogle plusPinterest

Das Wetter im Erzgebirge am 15.09.2016

Wetter und Klima am 15.09.2016 Holzhau im Erzgebirge (630m ü.NN)
Letzte gemessene Temperatur und Uhrzeit der Messung23:45:00 Uhr14.60 °C
Temperatur (Maximum / Höchstwert) und Uhrzeit der Messung16:30:00 Uhr25.50 °C
Temperatur (Minimum / Tiefstwert) und Uhrzeit der Messung00:45:0012.80 °C
Errechneter Absolutwert der Temperaturschwankungen zwischen Tmin und Tmax des Tages12.70 K
Errechnete Tagesmitteltemperatur17.90000 °C
Gesamt - Niederschlag des Tages (in flüssiger Form)0.00 Liter / m²
Luftdruck (Maximum / Höchstwert) und Zeitpunkt der Messung00:00:00 Uhr1015.10 hPa
Luftdruck (Minimum / Tiefstwert) und Zeitpunkt der Messung23:45:00 Uhr1011.10 hPa
Errechneter Absolutwert der Luftdruckschwankungen des Tages4.00 hPa
Höchste gemessene Windgeschwindigkeit und Uhrzeit der Messung23:45:00 Uhr0.00 km/h
Errechnete Windhäufigkeit in Relation zu den Messwerten des Tages0.00000 %
Niedrigste Windkühle (Windchill) und Zeitpunkt der Messung00:45:00 Uhr12.80 °C
Taupunkt (Maximum / Höchstwert) und Uhrzeit der Messung16:30:00 Uhr14.00 °C
Taupunkt (Minimum / Tiefstwert) und Uhrzeit der Messung07:15:007.70 °C
Anzahl der automatisch eingelesenen Messwerte 96

Detaillierte Wetter- und Klima- Messwerte für den 15.09.2016 in Holzhau im Erzgebirge (630m ü.NN)
ZeitTemperaturLuftdruckRel. LuftfeuchteWindWindrichtungWindchillTaupunktNiederschlag l/m²
23:45:0014.60 °C1011.10 hPa80.00 %11.20 °C 
23:30:0013.90 °C1011.40 hPa80.00 %10.50 °C 
23:15:0013.60 °C1011.20 hPa79.00 %10.00 °C 
23:00:0013.90 °C1011.30 hPa78.00 %10.10 °C 
22:45:0014.10 °C1011.30 hPa78.00 %10.30 °C 
22:30:0014.20 °C1011.40 hPa79.00 %10.60 °C 
22:15:0013.80 °C1011.20 hPa78.00 %10.00 °C 
22:00:0013.80 °C1011.30 hPa78.00 %10.00 °C 
21:45:0013.80 °C1011.40 hPa78.00 %10.00 °C 
21:30:0013.60 °C1011.30 hPa77.00 %9.60 °C 
21:15:0014.10 °C1011.60 hPa76.00 %9.90 °C 
21:00:0014.40 °C1011.60 hPa74.00 %9.80 °C 
20:45:0014.70 °C1011.70 hPa73.00 %9.90 °C 
20:30:0014.90 °C1011.50 hPa72.00 %9.90 °C 
20:15:0015.20 °C1011.60 hPa70.00 %9.80 °C 
20:00:0015.90 °C1011.50 hPa68.00 %10.00 °C 
19:45:0016.80 °C1011.60 hPa66.00 %10.40 °C 
19:30:0017.30 °C1011.50 hPa64.00 %10.40 °C 
19:15:0018.60 °C1011.80 hPa61.00 %10.90 °C 
19:00:0020.00 °C1012.00 hPa58.00 %11.50 °C 
18:45:0021.30 °C1011.90 hPa55.00 %11.90 °C 
18:30:0022.30 °C1011.90 hPa53.00 %12.30 °C 
18:15:0023.00 °C1012.10 hPa51.00 %12.30 °C 
18:00:0023.50 °C1012.10 hPa50.00 %12.50 °C 
17:45:0023.80 °C1012.20 hPa49.00 %12.40 °C 
17:30:0023.90 °C1012.00 hPa49.00 %12.50 °C 
17:15:0024.30 °C1012.20 hPa48.00 %12.60 °C 
17:00:0024.90 °C1012.40 hPa47.00 %12.80 °C 
16:45:0025.30 °C1012.30 hPa47.00 %13.20 °C 
16:30:0025.50 °C1012.30 hPa49.00 %14.00 °C 
16:15:0024.90 °C1012.60 hPa48.00 %13.10 °C 
16:00:0024.90 °C1012.70 hPa47.00 %12.80 °C 
15:45:0025.30 °C1012.60 hPa49.00 %13.80 °C 
15:30:0025.10 °C1012.60 hPa49.00 %13.60 °C 
15:15:0025.20 °C1013.00 hPa50.00 %14.00 °C 
15:00:0024.90 °C1013.00 hPa50.00 %13.80 °C 
14:45:0024.50 °C1012.90 hPa49.00 %13.10 °C 
14:30:0024.60 °C1013.00 hPa49.00 %13.20 °C 
14:15:0024.50 °C1013.00 hPa49.00 %13.10 °C 
14:00:0024.70 °C1013.10 hPa50.00 %13.60 °C 
13:45:0024.40 °C1013.10 hPa50.00 %13.30 °C 
13:30:0023.90 °C1013.20 hPa50.00 %12.80 °C 
13:15:0023.50 °C1013.20 hPa50.00 %12.50 °C 
13:00:0023.50 °C1013.20 hPa50.00 %12.50 °C 
12:45:0023.40 °C1013.20 hPa50.00 %12.40 °C 
12:30:0023.10 °C1013.40 hPa50.00 %12.10 °C 
12:15:0022.90 °C1013.40 hPa50.00 %11.90 °C 
12:00:0022.90 °C1013.40 hPa52.00 %12.50 °C 
11:45:0022.30 °C1013.50 hPa53.00 %12.30 °C 
11:30:0021.60 °C1013.80 hPa53.00 %11.60 °C 
11:15:0021.30 °C1013.60 hPa52.00 %11.10 °C 
11:00:0021.10 °C1013.40 hPa54.00 %11.40 °C 
10:45:0020.70 °C1013.40 hPa55.00 %11.30 °C 
10:30:0020.30 °C1013.50 hPa57.00 %11.50 °C 
10:15:0019.60 °C1013.50 hPa59.00 %11.40 °C 
10:00:0019.00 °C1013.60 hPa61.00 %11.30 °C 
09:45:0018.50 °C1013.30 hPa60.00 %10.60 °C 
09:30:0018.10 °C1013.20 hPa64.00 %11.20 °C 
09:15:0017.40 °C1013.30 hPa64.00 %10.50 °C 
09:00:0016.80 °C1013.30 hPa67.00 %10.60 °C 
08:45:0016.10 °C1013.20 hPa67.00 %10.00 °C 
08:30:0015.40 °C1013.30 hPa68.00 %9.50 °C 
08:15:0014.80 °C1013.30 hPa69.00 %9.20 °C 
08:00:0014.10 °C1013.50 hPa70.00 %8.70 °C 
07:45:0013.60 °C1013.30 hPa71.00 %8.40 °C 
07:30:0013.10 °C1013.40 hPa71.00 %8.00 °C 
07:15:0013.00 °C1013.30 hPa70.00 %7.70 °C 
07:00:0013.30 °C1013.40 hPa70.00 %8.00 °C 
06:45:0013.50 °C1013.20 hPa70.00 %8.10 °C 
06:30:0013.50 °C1013.20 hPa70.00 %8.10 °C 
06:15:0013.50 °C1013.20 hPa70.00 %8.10 °C 
06:00:0013.90 °C1013.00 hPa69.00 %8.30 °C 
05:45:0013.90 °C1013.30 hPa70.00 %8.50 °C 
05:30:0013.60 °C1013.30 hPa71.00 %8.40 °C 
05:15:0013.60 °C1013.30 hPa70.00 %8.20 °C 
05:00:0013.90 °C1013.50 hPa69.00 %8.30 °C 
04:45:0014.10 °C1013.50 hPa69.00 %8.50 °C 
04:30:0014.30 °C1013.70 hPa69.00 %8.70 °C 
04:15:0014.40 °C1013.80 hPa68.00 %8.60 °C 
04:00:0014.50 °C1013.70 hPa68.00 %8.70 °C 
03:45:0014.60 °C1013.90 hPa68.00 %8.80 °C 
03:30:0014.80 °C1013.90 hPa68.00 %9.00 °C 
03:15:0014.80 °C1014.00 hPa68.00 %9.00 °C 
03:00:0014.80 °C1014.00 hPa68.00 %9.00 °C 
02:45:0014.90 °C1014.30 hPa69.00 %9.30 °C 
02:30:0014.90 °C1014.20 hPa69.00 %9.30 °C 
02:15:0014.90 °C1014.40 hPa71.00 %9.70 °C 
02:00:0014.90 °C1014.30 hPa72.00 %9.90 °C 
01:45:0014.90 °C1014.40 hPa75.00 %10.50 °C 
01:30:0014.30 °C1014.60 hPa79.00 %10.70 °C 
01:15:0013.30 °C1014.70 hPa82.00 %10.30 °C 
01:00:0013.10 °C1014.90 hPa82.00 %10.10 °C 
00:45:0012.80 °C1015.00 hPa84.00 %10.20 °C 
00:30:0013.10 °C1014.80 hPa84.00 %10.50 °C 
00:15:0013.40 °C1015.00 hPa84.00 %10.80 °C 
00:00:0012.90 °C1015.10 hPa84.00 %10.30 °C 

Permanenter Link zu dieser Seite: Wetter im Erzgebirge am 15.09.2016
Performance-Info: Die Erstellung der Seite / Statistik(en) / Tabelle(n) erforderte 5 Datenbankserver-Abfrage(n) und dauerte 97 Millisekunden. (Dieser Messwert ist von der Gesamt-Auslastung des Servers abhängig.)
Erzgebirge - Wetter | Erzgebirge - Wetter (Mobilgeräte) | Komplette Klimadatenbank